createdAt,value
2019-04-14T00:02:44.725Z,3.63
2019-04-14T00:05:35.476Z,3.61
2019-04-14T00:08:26.341Z,3.58
2019-04-14T00:11:15.169Z,3.55
2019-04-14T00:14:05.223Z,3.51
2019-04-14T00:16:55.344Z,3.50
2019-04-14T00:19:45.672Z,3.46
2019-04-14T00:22:35.672Z,3.47
2019-04-14T00:25:26.199Z,3.44
2019-04-14T00:28:16.393Z,3.43
2019-04-14T00:31:06.576Z,3.39
2019-04-14T00:33:58.632Z,3.38
2019-04-14T00:37:05.600Z,3.36
2019-04-14T00:39:59.658Z,3.34
2019-04-14T00:42:59.159Z,3.32
2019-04-14T00:45:56.814Z,3.30
2019-04-14T00:48:45.888Z,3.27
2019-04-14T00:51:38.245Z,3.26
2019-04-14T00:54:32.454Z,3.24
2019-04-14T00:57:22.940Z,3.22
2019-04-14T01:00:16.963Z,3.21
2019-04-14T01:03:05.474Z,3.20
2019-04-14T01:05:54.986Z,3.16
2019-04-14T01:08:44.635Z,3.15
2019-04-14T01:11:34.056Z,3.13
2019-04-14T01:14:23.366Z,3.12
2019-04-14T01:17:13.418Z,3.09
2019-04-14T01:20:03.638Z,3.09
2019-04-14T01:22:53.230Z,3.04
2019-04-14T01:25:43.261Z,3.02
2019-04-14T01:28:33.190Z,3.02
2019-04-14T01:31:23.058Z,2.99
2019-04-14T01:34:13.351Z,2.96
2019-04-14T01:37:02.966Z,2.97
2019-04-14T01:39:52.543Z,2.93
2019-04-14T01:42:42.175Z,2.90
2019-04-14T01:45:31.750Z,2.89
2019-04-14T01:48:21.442Z,2.86
2019-04-14T01:51:48.706Z,2.83
2019-04-14T01:55:09.024Z,2.84
2019-04-14T01:58:18.584Z,2.82
2019-04-14T02:01:15.080Z,2.81
2019-04-14T02:04:04.992Z,2.79
2019-04-14T02:06:55.233Z,2.77
2019-04-14T02:09:44.865Z,2.76
2019-04-14T02:12:34.467Z,2.73
2019-04-14T02:15:24.460Z,2.72
2019-04-14T02:18:14.406Z,2.69
2019-04-14T02:21:04.350Z,2.68
2019-04-14T02:23:54.066Z,2.67
2019-04-14T02:26:43.927Z,2.68
2019-04-14T02:29:34.115Z,2.63
2019-04-14T02:32:49.533Z,2.62
2019-04-14T02:35:44.990Z,2.58
2019-04-14T02:44:32.156Z,2.52
2019-04-14T02:49:58.179Z,2.48
2019-04-14T02:55:44.868Z,2.45
2019-04-14T02:58:42.068Z,2.42
2019-04-14T03:01:23.362Z,2.40
2019-04-14T03:04:04.170Z,2.40
2019-04-14T03:07:04.978Z,2.39
2019-04-14T03:09:46.990Z,2.38
2019-04-14T03:18:44.684Z,2.32
2019-04-14T03:21:49.116Z,2.33
2019-04-14T03:24:47.292Z,2.32
2019-04-14T03:27:55.193Z,2.32
2019-04-14T03:34:06.666Z,2.27
2019-04-14T03:37:16.511Z,2.26
2019-04-14T03:39:27.392Z,2.25
2019-04-14T03:42:24.890Z,2.24
2019-04-14T03:45:11.147Z,2.24
2019-04-14T03:48:31.812Z,2.23
2019-04-14T03:50:55.916Z,2.21
2019-04-14T03:53:32.124Z,2.19
2019-04-14T03:56:46.328Z,2.16
2019-04-14T03:59:36.752Z,2.17
2019-04-14T04:02:27.176Z,2.16
2019-04-14T04:05:17.406Z,2.14
2019-04-14T04:08:07.198Z,2.13
2019-04-14T04:10:57.602Z,2.11
2019-04-14T04:13:47.758Z,2.10
2019-04-14T04:17:12.221Z,2.06
2019-04-14T04:20:10.994Z,2.04
2019-04-14T04:23:09.664Z,2.04
2019-04-14T04:26:06.695Z,2.01
2019-04-14T04:29:02.760Z,2.00
2019-04-14T04:32:14.273Z,1.97
2019-04-14T04:35:13.143Z,1.98
2019-04-14T04:38:09.584Z,1.94
2019-04-14T04:40:59.426Z,1.92
2019-04-14T04:43:49.457Z,1.91
2019-04-14T04:46:39.512Z,1.91
2019-04-14T04:49:30.801Z,1.89
2019-04-14T04:52:21.749Z,1.88
2019-04-14T04:55:11.252Z,1.86
2019-04-14T04:58:01.392Z,1.86
2019-04-14T05:00:54.195Z,1.84
2019-04-14T05:03:42.831Z,1.85
2019-04-14T05:07:07.845Z,1.83
2019-04-14T05:10:17.485Z,1.82
2019-04-14T05:13:21.181Z,1.81
2019-04-14T05:16:10.776Z,1.82
2019-04-14T05:19:12.013Z,1.80
2019-04-14T05:21:54.040Z,1.80
2019-04-14T05:24:44.098Z,1.79
2019-04-14T05:27:34.249Z,1.78
2019-04-14T05:30:24.314Z,1.77
2019-04-14T05:33:14.181Z,1.78
2019-04-14T05:36:04.185Z,1.77
2019-04-14T05:38:54.180Z,1.78
2019-04-14T05:41:56.825Z,1.78
2019-04-14T05:44:36.111Z,1.81
2019-04-14T05:47:26.194Z,1.82
2019-04-14T05:50:16.104Z,1.85
2019-04-14T05:53:06.489Z,1.89
2019-04-14T05:55:56.766Z,1.94
2019-04-14T05:58:47.164Z,2.00
2019-04-14T06:01:36.666Z,2.05
2019-04-14T06:04:26.485Z,2.06
2019-04-14T06:07:16.175Z,2.13
2019-04-14T06:10:06.804Z,2.18
2019-04-14T06:12:56.373Z,2.21
2019-04-14T06:15:45.689Z,2.25
2019-04-14T06:18:34.908Z,2.28
2019-04-14T06:21:23.970Z,2.30
2019-04-14T06:24:12.730Z,2.32
2019-04-14T06:27:03.645Z,2.34
2019-04-14T06:29:56.709Z,2.36
2019-04-14T06:32:46.254Z,2.40
2019-04-14T06:35:54.360Z,2.43
2019-04-14T06:38:46.625Z,2.47
2019-04-14T06:41:36.935Z,2.50
2019-04-14T06:44:26.606Z,2.53
2019-04-14T06:47:15.872Z,2.58
2019-04-14T06:50:05.880Z,2.61
2019-04-14T06:52:54.667Z,2.66
2019-04-14T06:55:43.887Z,2.72
2019-04-14T06:58:33.629Z,2.80
2019-04-14T07:01:23.615Z,2.87
2019-04-14T07:04:13.183Z,2.94
2019-04-14T07:07:02.561Z,3.03
2019-04-14T07:09:52.265Z,3.11
2019-04-14T07:12:43.029Z,3.20
2019-04-14T07:15:32.932Z,3.28
2019-04-14T07:18:22.506Z,3.37
2019-04-14T07:21:11.923Z,3.44
2019-04-14T07:24:01.464Z,3.51
2019-04-14T07:26:51.597Z,3.57
2019-04-14T07:29:55.761Z,3.63
2019-04-14T07:33:01.700Z,3.68
2019-04-14T07:36:09.143Z,3.78
2019-04-14T07:39:17.546Z,3.88
2019-04-14T07:42:10.144Z,3.98
2019-04-14T07:45:13.543Z,4.10
2019-04-14T07:48:26.418Z,4.21
2019-04-14T07:51:32.842Z,4.33
2019-04-14T07:54:29.717Z,4.48
2019-04-14T07:57:43.154Z,4.60
2019-04-14T08:00:40.269Z,4.72
2019-04-14T08:03:49.567Z,4.87
2019-04-14T08:06:39.482Z,4.99
2019-04-14T08:09:28.373Z,5.12
2019-04-14T08:12:17.529Z,5.24
2019-04-14T08:15:07.372Z,5.35
2019-04-14T08:17:57.563Z,5.49
2019-04-14T08:20:46.981Z,5.62
2019-04-14T08:23:36.218Z,5.77
2019-04-14T08:26:24.971Z,5.92
2019-04-14T08:29:14.956Z,6.05
2019-04-14T08:32:04.270Z,6.17
2019-04-14T08:34:53.800Z,6.30
2019-04-14T08:37:43.005Z,6.48
2019-04-14T08:40:32.433Z,6.61
2019-04-14T08:43:39.823Z,6.79
2019-04-14T08:46:42.314Z,6.95
2019-04-14T08:49:44.092Z,7.15
2019-04-14T08:52:41.458Z,7.33
2019-04-14T08:55:39.129Z,7.54
2019-04-14T08:58:37.978Z,7.71
2019-04-14T09:01:42.640Z,7.90
2019-04-14T09:04:56.039Z,8.10
2019-04-14T09:08:02.269Z,8.32
2019-04-14T09:10:55.902Z,8.53
2019-04-14T09:13:44.819Z,8.77
2019-04-14T09:16:34.278Z,8.96
2019-04-14T09:19:24.032Z,9.16
2019-04-14T09:22:13.617Z,9.38
2019-04-14T09:25:02.829Z,9.55
2019-04-14T09:27:52.260Z,9.71
2019-04-14T09:30:41.109Z,9.86
2019-04-14T09:33:30.924Z,10.05
2019-04-14T09:36:20.726Z,10.22
2019-04-14T09:39:09.487Z,10.33
2019-04-14T09:42:00.904Z,10.56
2019-04-14T09:44:50.512Z,10.76
2019-04-14T09:47:40.138Z,10.98
2019-04-14T09:50:29.713Z,11.19
2019-04-14T09:53:18.653Z,11.34
2019-04-14T09:56:08.125Z,11.49
2019-04-14T09:58:57.707Z,11.57
2019-04-14T10:01:47.049Z,11.65
2019-04-14T10:04:35.865Z,11.68
2019-04-14T10:07:25.116Z,11.65
2019-04-14T10:10:14.475Z,11.73
2019-04-14T10:13:04.384Z,11.84
2019-04-14T10:15:54.197Z,11.99
2019-04-14T10:18:43.335Z,12.17
2019-04-14T10:21:33.019Z,12.36
2019-04-14T10:24:22.787Z,12.62
2019-04-14T10:27:11.534Z,12.86
2019-04-14T10:30:00.675Z,13.06
2019-04-14T10:32:50.589Z,13.26
2019-04-14T10:35:39.409Z,13.44
2019-04-14T10:38:28.859Z,13.55
2019-04-14T10:41:19.389Z,13.70
2019-04-14T10:44:08.895Z,13.82
2019-04-14T10:46:58.832Z,13.95
2019-04-14T10:49:48.023Z,14.09
2019-04-14T10:52:37.056Z,14.28
2019-04-14T10:55:26.644Z,14.45
2019-04-14T10:58:15.555Z,14.54
2019-04-14T11:01:04.362Z,14.61
2019-04-14T11:03:53.543Z,14.76
2019-04-14T11:06:47.578Z,14.90
2019-04-14T11:09:37.260Z,14.95
2019-04-14T11:12:26.793Z,14.93
2019-04-14T11:15:15.712Z,14.96
2019-04-14T11:18:04.613Z,15.00
2019-04-14T11:20:54.455Z,15.11
2019-04-14T11:23:44.061Z,15.23
2019-04-14T11:26:33.785Z,15.42
2019-04-14T11:29:23.316Z,15.60
2019-04-14T11:32:30.953Z,15.75
2019-04-14T11:35:42.478Z,15.79
2019-04-14T11:38:38.954Z,15.80
2019-04-14T11:41:27.936Z,15.75
2019-04-14T11:44:17.658Z,15.74
2019-04-14T11:47:07.256Z,15.80
2019-04-14T11:49:58.463Z,15.86
2019-04-14T11:52:47.746Z,15.90
2019-04-14T11:55:37.329Z,15.90
2019-04-14T11:58:29.139Z,15.88
2019-04-14T12:01:34.422Z,15.84
2019-04-14T12:04:31.337Z,15.78
2019-04-14T12:07:28.073Z,15.78
2019-04-14T12:10:20.312Z,15.84
2019-04-14T12:13:10.255Z,16.00
2019-04-14T12:15:59.762Z,16.19
2019-04-14T12:18:49.319Z,16.36
2019-04-14T12:21:38.179Z,16.57
2019-04-14T12:24:28.293Z,16.73
2019-04-14T12:27:17.614Z,16.93
2019-04-14T12:30:11.036Z,17.12
2019-04-14T12:33:00.364Z,17.35
2019-04-14T12:35:50.136Z,17.60
2019-04-14T12:38:39.162Z,17.79
2019-04-14T12:41:36.193Z,17.88
2019-04-14T12:44:50.217Z,18.07
2019-04-14T12:47:54.004Z,18.21
2019-04-14T12:50:53.008Z,18.39
2019-04-14T12:53:44.274Z,18.53
2019-04-14T12:56:34.405Z,18.68
2019-04-14T12:59:24.621Z,18.80
2019-04-14T13:02:20.201Z,18.86
2019-04-14T13:05:10.110Z,18.90
2019-04-14T13:08:00.521Z,18.95
2019-04-14T13:10:50.216Z,19.03
2019-04-14T13:13:39.490Z,19.07
2019-04-14T13:16:30.111Z,19.10
2019-04-14T13:19:19.591Z,19.16
2019-04-14T13:22:08.898Z,19.16
2019-04-14T13:24:59.011Z,19.11
2019-04-14T13:27:50.183Z,19.12
2019-04-14T13:30:42.294Z,19.14
2019-04-14T13:33:31.422Z,19.19
2019-04-14T13:36:20.843Z,19.25
2019-04-14T13:39:12.714Z,19.20
2019-04-14T13:42:01.620Z,19.16
2019-04-14T13:44:51.301Z,19.13
2019-04-14T13:47:43.404Z,19.05
2019-04-14T13:50:38.228Z,18.93
2019-04-14T13:53:27.745Z,18.89
2019-04-14T13:56:16.981Z,18.91
2019-04-14T13:59:05.864Z,18.95
2019-04-14T14:01:55.764Z,18.91
2019-04-14T14:04:44.924Z,18.82
2019-04-14T14:07:33.977Z,18.75
2019-04-14T14:10:23.694Z,18.67
2019-04-14T14:13:26.580Z,18.42
2019-04-14T14:16:26.023Z,18.44
2019-04-14T14:19:34.337Z,18.50
2019-04-14T14:22:37.608Z,18.48
2019-04-14T14:25:32.563Z,18.57
2019-04-14T14:28:21.491Z,18.61
2019-04-14T14:31:10.777Z,18.71
2019-04-14T14:34:00.350Z,18.77
2019-04-14T14:36:51.012Z,18.84
2019-04-14T14:39:40.400Z,18.90
2019-04-14T14:42:29.534Z,18.93
2019-04-14T14:45:37.307Z,18.97
2019-04-14T14:48:45.845Z,19.05
2019-04-14T14:51:44.757Z,19.12
2019-04-14T14:54:33.842Z,19.21
2019-04-14T14:57:27.690Z,19.29
2019-04-14T15:00:36.277Z,19.40
2019-04-14T15:03:25.975Z,19.47
2019-04-14T15:06:16.270Z,19.57
2019-04-14T15:09:09.119Z,19.64
2019-04-14T15:12:00.851Z,19.67
2019-04-14T15:14:50.662Z,19.69
2019-04-14T15:17:40.168Z,19.69
2019-04-14T15:20:29.160Z,19.69
2019-04-14T15:23:24.700Z,19.70
2019-04-14T15:26:09.724Z,19.70
2019-04-14T15:28:59.323Z,19.66
2019-04-14T15:31:48.577Z,19.58
2019-04-14T15:34:38.080Z,19.55
2019-04-14T15:37:27.437Z,19.50
2019-04-14T15:40:18.986Z,19.41
2019-04-14T15:43:08.251Z,19.33
2019-04-14T15:45:59.562Z,19.29
2019-04-14T15:48:48.879Z,19.26
2019-04-14T15:51:38.103Z,19.29
2019-04-14T15:54:27.771Z,19.32
2019-04-14T15:57:36.904Z,19.36
2019-04-14T16:00:56.112Z,19.38
2019-04-14T16:03:53.176Z,19.31
2019-04-14T16:07:17.177Z,19.12
2019-04-14T16:10:15.680Z,19.04
2019-04-14T16:13:11.493Z,18.99
2019-04-14T16:16:11.419Z,18.96
2019-04-14T16:19:11.747Z,18.96
2019-04-14T16:22:01.796Z,18.95
2019-04-14T16:24:51.452Z,18.96
2019-04-14T16:27:55.052Z,18.97
2019-04-14T16:31:02.572Z,19.00
2019-04-14T16:34:26.151Z,18.96
2019-04-14T16:37:15.835Z,18.96
2019-04-14T16:40:04.781Z,18.82
2019-04-14T16:42:55.038Z,18.74
2019-04-14T16:45:44.693Z,18.65
2019-04-14T16:48:33.542Z,18.50
2019-04-14T16:51:27.638Z,18.35
2019-04-14T16:54:54.705Z,18.19
2019-04-14T16:58:03.416Z,17.99
2019-04-14T17:00:58.571Z,17.76
2019-04-14T17:03:47.497Z,17.59
2019-04-14T17:06:37.460Z,17.39
2019-04-14T17:09:27.369Z,17.21
2019-04-14T17:12:18.469Z,17.05
2019-04-14T17:15:19.644Z,16.88
2019-04-14T17:18:19.295Z,16.73
2019-04-14T17:21:31.901Z,16.56
2019-04-14T17:24:48.892Z,16.42
2019-04-14T17:27:46.453Z,16.26
2019-04-14T17:30:48.845Z,16.14
2019-04-14T17:33:42.831Z,16.02
2019-04-14T17:36:44.243Z,15.88
2019-04-14T17:39:38.889Z,15.77
2019-04-14T17:42:39.503Z,15.61
2019-04-14T17:45:40.496Z,15.49
2019-04-14T17:48:45.704Z,15.31
2019-04-14T17:51:53.454Z,15.21
2019-04-14T17:54:48.822Z,15.06
2019-04-14T17:57:57.306Z,14.92
2019-04-14T18:01:04.601Z,14.80
2019-04-14T18:04:00.649Z,14.66
2019-04-14T18:06:57.510Z,14.53
2019-04-14T18:10:09.754Z,14.39
2019-04-14T18:13:20.781Z,14.29
2019-04-14T18:16:22.923Z,14.16
2019-04-14T18:19:23.145Z,14.03
2019-04-14T18:22:12.197Z,13.89
2019-04-14T18:25:02.310Z,13.76
2019-04-14T18:28:09.432Z,13.67
2019-04-14T18:31:24.411Z,13.53
2019-04-14T18:34:31.376Z,13.41
2019-04-14T18:37:38.887Z,13.27
2019-04-14T18:40:36.118Z,13.15
2019-04-14T18:43:52.918Z,13.02
2019-04-14T18:46:51.770Z,12.89
2019-04-14T18:49:53.597Z,12.77
2019-04-14T18:53:09.506Z,12.65
2019-04-14T18:56:10.181Z,12.52
2019-04-14T18:59:26.073Z,12.39
2019-04-14T19:02:18.724Z,12.26
2019-04-14T19:05:09.131Z,12.13
2019-04-14T19:08:03.177Z,12.03
2019-04-14T19:11:08.393Z,11.92
2019-04-14T19:13:59.463Z,11.81
2019-04-14T19:16:53.765Z,11.70
2019-04-14T19:20:00.560Z,11.58
2019-04-14T19:22:39.668Z,11.49
2019-04-14T19:25:30.699Z,11.37
2019-04-14T19:28:19.873Z,11.26
2019-04-14T19:31:09.196Z,11.16
2019-04-14T19:33:59.221Z,11.09
2019-04-14T19:36:49.030Z,10.99
2019-04-14T19:39:38.700Z,10.90
2019-04-14T19:42:28.326Z,10.82
2019-04-14T19:45:17.647Z,10.75
2019-04-14T19:48:06.618Z,10.66
2019-04-14T19:50:57.909Z,10.58
2019-04-14T19:53:47.172Z,10.51
2019-04-14T19:56:38.132Z,10.43
2019-04-14T19:59:29.991Z,10.35
2019-04-14T20:02:21.165Z,10.27
2019-04-14T20:05:12.150Z,10.19
2019-04-14T20:08:03.729Z,10.13
2019-04-14T20:10:54.269Z,10.06
2019-04-14T20:13:47.412Z,9.97
2019-04-14T20:16:44.806Z,9.90
2019-04-14T20:20:00.396Z,9.81
2019-04-14T20:23:01.109Z,9.74
2019-04-14T20:26:14.987Z,9.65
2019-04-14T20:29:16.499Z,9.57
2019-04-14T20:32:27.712Z,9.50
2019-04-14T20:35:17.918Z,9.43
2019-04-14T20:38:12.919Z,9.37
2019-04-14T20:41:02.987Z,9.30
2019-04-14T20:43:53.175Z,9.23
2019-04-14T20:46:43.091Z,9.17
2019-04-14T20:49:32.325Z,9.10
2019-04-14T20:52:25.456Z,9.02
2019-04-14T20:55:14.908Z,8.97
2019-04-14T20:58:04.431Z,8.89
2019-04-14T21:00:55.938Z,8.81
2019-04-14T21:04:04.878Z,8.75
2019-04-14T21:07:19.188Z,8.71
2019-04-14T21:10:18.769Z,8.63
2019-04-14T21:13:15.029Z,8.56
2019-04-14T21:16:22.752Z,8.50
2019-04-14T21:19:27.158Z,8.43
2019-04-14T21:22:33.573Z,8.37
2019-04-14T21:25:59.230Z,8.29
2019-04-14T21:28:54.502Z,8.24
2019-04-14T21:31:49.976Z,8.17
2019-04-14T21:34:52.042Z,8.11
2019-04-14T21:38:10.005Z,8.06
2019-04-14T21:41:04.208Z,7.99
2019-04-14T21:43:56.828Z,7.94
2019-04-14T21:46:47.762Z,7.88
2019-04-14T21:49:37.339Z,7.82
2019-04-14T21:52:45.809Z,7.76
2019-04-14T21:55:35.500Z,7.73
2019-04-14T21:58:30.077Z,7.67
2019-04-14T22:02:16.208Z,7.63
2019-04-14T22:05:14.584Z,7.60
2019-04-14T22:08:16.053Z,7.55
2019-04-14T22:11:08.379Z,7.51
2019-04-14T22:13:59.105Z,7.48
2019-04-14T22:16:48.121Z,7.46
2019-04-14T22:19:37.702Z,7.45
2019-04-14T22:22:26.791Z,7.43
2019-04-14T22:25:16.322Z,7.41
2019-04-14T22:28:06.109Z,7.41
2019-04-14T22:30:55.522Z,7.40
2019-04-14T22:33:45.283Z,7.39
2019-04-14T22:36:35.139Z,7.38
2019-04-14T22:39:24.321Z,7.36
2019-04-14T22:42:14.628Z,7.34
2019-04-14T22:45:05.311Z,7.34
2019-04-14T22:47:54.903Z,7.32
2019-04-14T22:50:43.713Z,7.30
2019-04-14T22:53:32.915Z,7.26
2019-04-14T22:56:21.883Z,7.27
2019-04-14T22:59:11.574Z,7.24
2019-04-14T23:02:09.656Z,7.22
2019-04-14T23:05:11.469Z,7.19
2019-04-14T23:08:24.182Z,7.17
2019-04-14T23:11:24.752Z,7.14
2019-04-14T23:14:31.439Z,7.11
2019-04-14T23:17:39.655Z,7.06
2019-04-14T23:20:34.185Z,7.03
2019-04-14T23:23:38.522Z,7.01
2019-04-14T23:26:27.410Z,6.99
2019-04-14T23:29:16.375Z,6.96
2019-04-14T23:32:06.750Z,6.94
2019-04-14T23:34:56.732Z,6.91
2019-04-14T23:37:45.987Z,6.88
2019-04-14T23:40:35.872Z,6.85
2019-04-14T23:43:26.616Z,6.83
2019-04-14T23:46:16.513Z,6.80
2019-04-14T23:49:06.730Z,6.76
2019-04-14T23:51:56.131Z,6.72
2019-04-14T23:54:45.671Z,6.68
2019-04-14T23:57:34.858Z,6.64
